Terminal Aerodrome Forecast
Issued by NWS Blacksburg, VA

Current Version | Previous Version | Text Only | Print | Product List | Glossary Off
Versions: 1 2 3 4 5 6 7 8 9 10 11 12 13 14 15 16 17 18 19 20 21 22 23 24 25 26 27 28 29 30 31 32 33 34 35 36 37 38 39 40 41

000
FTUS41 KRNK 141736
TAFBLF
TAF
KBLF 141736Z 1418/1518 16008KT P6SM OVC022
     FM142000 22006KT P6SM OVC035
     FM150200 21003KT P6SM OVC025
     FM150700 25003KT 2SM BR OVC012
     FM151400 25006KT P6SM BKN040=

USA.gov is the U.S. government's official web portal to all federal, state and local government web resources and services.